Main page
METAR-TAF:

METAR-TAF

Airports :

Koksijde, Belgium

Koksijde Air Base

latitude: 51-05N, longitude: 002-39E, elevation: 4 m

Current weather observation

The report was made 27 minutes ago, at 01:55 UTC
Wind 9 kt from the Northwest
Temperature 4°C
Humidity 87%
Pressure 1022 hPa
Visibility 10 km or more

METAR: EBFN 170155Z AUTO 32009KT 9999 SCT019/// 04/02 Q1022 WHT

Time: 03:22 (02:22 UTC)

Forecast

The report was made 10 hours and 39 minutes ago, at 15:43 UTC
Forecast valid from 16 at 19 UTC to 17 at 07 UTC
Wind 10 kt from the Northwest
Visibility 10 km or more
Few clouds at a height of 2000 ft
Probability 30% :
Temporary
from 16 at 19 UTC to 17 at 07 UTC
Visibility: 7000 m
Few clouds at a height of 1500 ft
Few clouds at a height of 2000 ft
light rain showers
Becoming
from 17 at 04 UTC to 17 at 06 UTC
Wind 8 kt from the West/Northwest

TAF: EBFN 161543Z 1619/1707 31010KT 9999 FEW020 PROB30 TEMPO 1619/1707 7000 -SHRA FEW015 FEW020 BECMG 1704/1706 30008KT

Weather observations and forecasts of more than 4000 airports (METAR and TAF reports).

The available stations are represented by yellow and red dots on the map.

Hover mouse over dot to see the name of the station.

Then click to see weather observations and forecasts.

To change the map : click on the green buttons with a black cross to zoom in, on the green button with a dash to zoom out, or on the green arrows for adjacent maps.


METAR-TAF: